createdAt,value
2019-03-27T00:00:48.882Z,9.38
2019-03-27T00:03:17.413Z,10.20
2019-03-27T00:05:45.626Z,10.13
2019-03-27T00:08:13.831Z,8.93
2019-03-27T00:10:42.034Z,9.80
2019-03-27T00:13:10.231Z,9.93
2019-03-27T00:15:38.467Z,9.35
2019-03-27T00:18:06.960Z,9.93
2019-03-27T00:20:35.179Z,10.40
2019-03-27T00:23:03.415Z,9.85
2019-03-27T00:25:31.659Z,10.00
2019-03-27T00:28:00.096Z,9.08
2019-03-27T00:30:28.317Z,8.40
2019-03-27T00:32:56.519Z,8.50
2019-03-27T00:35:25.002Z,9.80
2019-03-27T00:37:53.193Z,8.33
2019-03-27T00:40:21.753Z,9.55
2019-03-27T00:42:50.240Z,8.45
2019-03-27T00:45:26.611Z,9.35
2019-03-27T00:47:48.391Z,9.23
2019-03-27T00:50:16.634Z,8.33
2019-03-27T00:52:45.374Z,9.78
2019-03-27T00:55:13.963Z,8.83
2019-03-27T00:57:42.180Z,7.75
2019-03-27T01:00:27.717Z,11.25
2019-03-27T01:02:55.934Z,9.90
2019-03-27T01:05:24.137Z,10.05
2019-03-27T01:07:52.362Z,7.92
2019-03-27T01:10:22.780Z,7.92
2019-03-27T01:12:50.565Z,9.33
2019-03-27T01:15:19.124Z,8.55
2019-03-27T01:17:47.605Z,8.68
2019-03-27T01:20:15.805Z,7.70
2019-03-27T01:22:44.364Z,8.53
2019-03-27T01:25:12.558Z,7.80
2019-03-27T01:27:40.767Z,8.73
2019-03-27T01:30:08.963Z,8.08
2019-03-27T01:32:37.174Z,9.05
2019-03-27T01:35:05.371Z,8.48
2019-03-27T01:37:33.588Z,7.75
2019-03-27T01:40:01.783Z,5.78
2019-03-27T01:42:29.993Z,7.55
2019-03-27T01:44:58.201Z,7.28
2019-03-27T01:47:26.705Z,7.78
2019-03-27T01:49:54.907Z,7.22
2019-03-27T01:52:23.115Z,7.03
2019-03-27T01:54:51.312Z,7.22
2019-03-27T01:57:19.535Z,7.42
2019-03-27T01:59:47.723Z,7.35
2019-03-27T02:02:15.935Z,7.00
2019-03-27T02:04:44.430Z,7.33
2019-03-27T02:07:12.640Z,6.10
2019-03-27T02:09:40.852Z,6.33
2019-03-27T02:12:09.282Z,8.03
2019-03-27T02:14:37.478Z,6.95
2019-03-27T02:17:05.710Z,6.75
2019-03-27T02:19:33.901Z,5.95
2019-03-27T02:22:02.102Z,6.62
2019-03-27T02:24:30.557Z,6.17
2019-03-27T02:26:58.759Z,8.08
2019-03-27T02:29:26.953Z,6.55
2019-03-27T02:31:55.161Z,5.22
2019-03-27T02:34:23.373Z,7.00
2019-03-27T02:36:51.580Z,6.80
2019-03-27T02:39:20.095Z,5.58
2019-03-27T02:41:48.572Z,7.50
2019-03-27T02:44:16.772Z,6.78
2019-03-27T02:46:44.970Z,6.92
2019-03-27T02:49:13.176Z,6.35
2019-03-27T02:51:41.701Z,6.33
2019-03-27T02:54:09.900Z,8.28
2019-03-27T02:56:39.728Z,6.25
2019-03-27T02:59:08.246Z,7.15
2019-03-27T03:01:36.455Z,7.25
2019-03-27T03:04:06.281Z,6.58
2019-03-27T03:06:34.474Z,5.33
2019-03-27T03:09:02.945Z,6.42
2019-03-27T03:11:31.147Z,6.60
2019-03-27T03:13:59.487Z,7.78
2019-03-27T03:16:41.266Z,5.65
2019-03-27T03:18:57.863Z,6.80
2019-03-27T03:21:26.442Z,6.35
2019-03-27T03:23:54.622Z,6.28
2019-03-27T03:26:22.814Z,6.55
2019-03-27T03:28:51.031Z,6.80
2019-03-27T03:31:19.527Z,8.80
2019-03-27T03:33:47.733Z,5.87
2019-03-27T03:36:16.196Z,5.37
2019-03-27T03:38:44.403Z,7.75
2019-03-27T03:41:12.625Z,7.00
2019-03-27T03:43:40.833Z,6.22
2019-03-27T03:46:09.024Z,8.60
2019-03-27T03:48:37.239Z,6.08
2019-03-27T03:51:05.727Z,6.67
2019-03-27T03:53:33.934Z,6.50
2019-03-27T03:56:02.127Z,5.65
2019-03-27T03:58:30.714Z,6.03
2019-03-27T04:01:00.515Z,7.03
2019-03-27T04:03:28.730Z,5.03
2019-03-27T04:05:56.934Z,5.45
2019-03-27T04:08:25.510Z,6.72
2019-03-27T04:10:53.982Z,6.78
2019-03-27T04:13:22.183Z,8.13
2019-03-27T04:15:50.388Z,5.80
2019-03-27T04:18:20.224Z,5.78
2019-03-27T04:20:48.428Z,5.05
2019-03-27T04:23:16.631Z,6.62
2019-03-27T04:26:08.072Z,6.17
2019-03-27T04:28:14.748Z,6.70
2019-03-27T04:30:42.941Z,5.85
2019-03-27T04:33:11.152Z,6.87
2019-03-27T04:35:39.591Z,5.85
2019-03-27T04:38:07.787Z,6.35
2019-03-27T04:40:36.008Z,6.22
2019-03-27T04:43:04.191Z,6.50
2019-03-27T04:45:32.406Z,6.15
2019-03-27T04:48:00.607Z,5.97
2019-03-27T04:50:28.818Z,6.47
2019-03-27T04:52:57.331Z,7.30
2019-03-27T04:55:25.550Z,6.10
2019-03-27T04:57:53.740Z,6.08
2019-03-27T05:00:21.946Z,6.72
2019-03-27T05:02:50.443Z,7.33
2019-03-27T05:05:19.027Z,6.55
2019-03-27T05:07:47.221Z,7.30
2019-03-27T05:10:15.434Z,5.50
2019-03-27T05:12:43.633Z,5.67
2019-03-27T05:15:11.842Z,7.15
2019-03-27T05:17:45.835Z,5.00
2019-03-27T05:20:09.975Z,5.22
2019-03-27T05:22:38.179Z,7.28
2019-03-27T05:25:07.061Z,7.42
2019-03-27T05:27:36.481Z,8.70
2019-03-27T05:30:06.379Z,5.42
2019-03-27T05:32:34.654Z,6.67
2019-03-27T05:35:02.935Z,6.47
2019-03-27T05:37:31.143Z,7.90
2019-03-27T05:39:59.347Z,6.90
2019-03-27T05:42:27.544Z,8.25
2019-03-27T05:44:55.827Z,5.83
2019-03-27T05:47:24.020Z,6.67
2019-03-27T05:49:52.230Z,6.85
2019-03-27T05:52:20.430Z,6.60
2019-03-27T05:54:48.639Z,8.73
2019-03-27T05:57:17.138Z,5.47
2019-03-27T05:59:45.703Z,7.30
2019-03-27T06:02:13.903Z,6.87
2019-03-27T06:04:42.455Z,6.42
2019-03-27T06:07:10.944Z,7.42
2019-03-27T06:09:39.517Z,7.80
2019-03-27T06:12:07.730Z,8.38
2019-03-27T06:14:35.952Z,6.80
2019-03-27T06:17:04.151Z,6.95
2019-03-27T06:19:32.369Z,6.42
2019-03-27T06:22:00.565Z,7.87
2019-03-27T06:24:29.076Z,6.22
2019-03-27T06:26:57.272Z,6.72
2019-03-27T06:29:25.495Z,7.00
2019-03-27T06:31:53.696Z,6.78
2019-03-27T06:34:22.280Z,8.18
2019-03-27T06:36:50.482Z,8.78
2019-03-27T06:39:18.773Z,9.45
2019-03-27T06:41:46.976Z,8.83
2019-03-27T06:44:15.182Z,7.42
2019-03-27T06:46:43.374Z,8.28
2019-03-27T06:49:11.838Z,7.35
2019-03-27T06:51:40.639Z,10.80
2019-03-27T06:54:08.924Z,15.65
2019-03-27T06:56:37.127Z,16.77
2019-03-27T06:59:05.334Z,13.58
2019-03-27T07:01:33.545Z,13.62
2019-03-27T07:04:10.419Z,13.48
2019-03-27T07:06:31.935Z,11.03
2019-03-27T07:09:00.145Z,36.35
2019-03-27T07:11:28.429Z,30.82
2019-03-27T07:13:56.952Z,25.72
2019-03-27T07:16:25.427Z,21.77
2019-03-27T07:18:53.638Z,21.75
2019-03-27T07:21:21.849Z,19.62
2019-03-27T07:23:50.369Z,19.27
2019-03-27T07:26:18.576Z,27.45
2019-03-27T07:28:46.874Z,34.35
2019-03-27T07:31:15.397Z,30.10
2019-03-27T07:33:43.605Z,23.20
2019-03-27T07:36:11.815Z,23.32
2019-03-27T07:38:40.026Z,37.08
2019-03-27T07:41:08.232Z,39.53
2019-03-27T07:43:36.448Z,34.23
2019-03-27T07:46:04.648Z,22.90
2019-03-27T07:48:32.851Z,32.83
2019-03-27T07:51:01.399Z,41.50
2019-03-27T07:53:29.880Z,34.60
2019-03-27T07:55:58.105Z,30.55
2019-03-27T07:58:26.312Z,28.90
2019-03-27T08:00:54.554Z,30.17
2019-03-27T08:03:22.766Z,30.62
2019-03-27T08:05:51.265Z,27.02
2019-03-27T08:08:19.475Z,31.02
2019-03-27T08:10:47.687Z,32.28
2019-03-27T08:13:16.256Z,29.05
2019-03-27T08:15:46.829Z,28.00
2019-03-27T08:18:15.030Z,24.07
2019-03-27T08:20:43.247Z,29.80
2019-03-27T08:23:11.455Z,28.05
2019-03-27T08:25:40.025Z,24.37
2019-03-27T08:28:08.229Z,23.98
2019-03-27T08:30:36.452Z,25.85
2019-03-27T08:33:04.963Z,21.55
2019-03-27T08:35:33.187Z,21.70
2019-03-27T08:38:01.717Z,24.50
2019-03-27T08:40:29.932Z,20.52
2019-03-27T08:42:58.476Z,18.50
2019-03-27T08:45:26.686Z,18.82
2019-03-27T08:47:54.897Z,17.95
2019-03-27T08:50:23.112Z,21.30
2019-03-27T08:52:51.320Z,20.60
2019-03-27T08:55:19.853Z,15.90
2019-03-27T08:57:48.069Z,18.50
2019-03-27T09:00:21.331Z,16.30
2019-03-27T09:02:49.801Z,15.05
2019-03-27T09:05:18.296Z,16.60
2019-03-27T09:07:46.493Z,15.25
2019-03-27T09:10:14.942Z,14.00
2019-03-27T09:12:43.138Z,16.17
2019-03-27T09:15:11.367Z,16.82
2019-03-27T09:17:39.543Z,17.80
2019-03-27T09:20:07.747Z,13.65
2019-03-27T09:22:35.963Z,13.98
2019-03-27T09:25:07.770Z,14.13
2019-03-27T09:27:35.988Z,13.10
2019-03-27T09:30:07.171Z,11.65
2019-03-27T09:32:35.662Z,14.90
2019-03-27T09:35:04.401Z,10.82
2019-03-27T09:37:32.623Z,13.88
2019-03-27T09:40:01.112Z,12.88
2019-03-27T09:42:29.326Z,13.53
2019-03-27T09:44:57.524Z,11.18
2019-03-27T09:47:26.033Z,11.05
2019-03-27T09:49:54.236Z,11.50
2019-03-27T09:52:22.793Z,10.48
2019-03-27T09:54:53.105Z,11.10
2019-03-27T09:57:21.294Z,10.58
2019-03-27T09:59:49.779Z,10.75
2019-03-27T10:02:18.353Z,10.18
2019-03-27T10:04:46.546Z,9.35
2019-03-27T10:07:15.111Z,9.73
2019-03-27T10:09:43.307Z,9.20
2019-03-27T10:12:11.521Z,9.63
2019-03-27T10:14:40.039Z,9.58
2019-03-27T10:17:08.256Z,10.95
2019-03-27T10:19:36.449Z,8.48
2019-03-27T10:22:04.674Z,8.90
2019-03-27T10:24:32.874Z,10.15
2019-03-27T10:27:01.083Z,8.15
2019-03-27T10:29:29.287Z,10.72
2019-03-27T10:31:57.497Z,8.08
2019-03-27T10:34:25.696Z,9.30
2019-03-27T10:36:53.957Z,8.25
2019-03-27T10:39:22.497Z,9.55
2019-03-27T10:41:50.710Z,9.50
2019-03-27T10:44:19.249Z,7.60
2019-03-27T10:46:47.446Z,8.93
2019-03-27T10:49:15.649Z,7.80
2019-03-27T10:51:43.847Z,7.90
2019-03-27T10:54:12.454Z,7.35
2019-03-27T10:56:40.655Z,7.25
2019-03-27T10:59:08.855Z,8.95
2019-03-27T11:01:37.056Z,8.28
2019-03-27T11:04:05.265Z,9.68
2019-03-27T11:06:33.551Z,7.05
2019-03-27T11:09:01.751Z,7.15
2019-03-27T11:11:29.956Z,6.30
2019-03-27T11:13:58.463Z,8.50
2019-03-27T11:16:26.659Z,9.28
2019-03-27T11:18:54.863Z,8.55
2019-03-27T11:21:23.477Z,8.58
2019-03-27T11:23:51.671Z,5.83
2019-03-27T11:26:19.879Z,7.67
2019-03-27T11:28:48.164Z,7.42
2019-03-27T11:31:16.368Z,6.62
2019-03-27T11:33:44.738Z,8.53
2019-03-27T11:36:13.255Z,7.08
2019-03-27T11:38:41.458Z,6.25
2019-03-27T11:41:12.226Z,6.05
2019-03-27T11:43:39.592Z,7.78
2019-03-27T11:46:07.789Z,7.15
2019-03-27T11:48:36.471Z,5.45
2019-03-27T11:51:04.667Z,6.65
2019-03-27T11:53:32.874Z,5.05
2019-03-27T11:56:03.338Z,6.17
2019-03-27T11:58:31.320Z,6.08
2019-03-27T12:00:59.519Z,6.20
2019-03-27T12:03:27.718Z,6.17
2019-03-27T12:05:55.925Z,6.05
2019-03-27T12:08:24.114Z,7.35
2019-03-27T12:10:52.591Z,5.08
2019-03-27T12:13:20.795Z,6.78
2019-03-27T12:15:48.994Z,5.83
2019-03-27T12:18:17.444Z,6.25
2019-03-27T12:20:58.213Z,5.40
2019-03-27T12:23:15.919Z,3.83
2019-03-27T12:25:44.118Z,6.75
2019-03-27T12:28:12.677Z,5.25
2019-03-27T12:30:40.870Z,6.33
2019-03-27T12:33:09.088Z,5.90
2019-03-27T12:35:37.602Z,4.90
2019-03-27T12:38:05.862Z,4.78
2019-03-27T12:40:34.005Z,4.37
2019-03-27T12:43:02.214Z,5.75
2019-03-27T12:45:30.429Z,7.05
2019-03-27T12:47:58.627Z,4.83
2019-03-27T12:50:26.838Z,4.42
2019-03-27T12:52:55.338Z,4.42
2019-03-27T12:55:23.559Z,4.75
2019-03-27T12:57:52.099Z,4.75
2019-03-27T13:00:20.322Z,4.45
2019-03-27T13:02:48.523Z,4.80
2019-03-27T13:05:16.727Z,4.40
2019-03-27T13:07:50.174Z,5.25
2019-03-27T13:10:15.415Z,4.87
2019-03-27T13:12:43.609Z,4.50
2019-03-27T13:15:11.832Z,4.47
2019-03-27T13:17:40.345Z,6.20
2019-03-27T13:20:08.831Z,4.60
2019-03-27T13:22:38.396Z,4.40
2019-03-27T13:25:07.355Z,5.22
2019-03-27T13:27:35.907Z,4.78
2019-03-27T13:30:06.667Z,5.28
2019-03-27T13:32:34.859Z,5.10
2019-03-27T13:35:03.541Z,3.87
2019-03-27T13:37:31.735Z,3.10
2019-03-27T13:40:00.561Z,5.78
2019-03-27T13:42:29.044Z,3.70
2019-03-27T13:44:57.253Z,3.27
2019-03-27T13:47:25.450Z,5.30
2019-03-27T13:49:53.978Z,4.25
2019-03-27T13:52:22.175Z,4.67
2019-03-27T13:54:50.387Z,3.05
2019-03-27T13:57:18.582Z,4.62
2019-03-27T13:59:47.079Z,3.75
2019-03-27T14:02:15.278Z,3.92
2019-03-27T14:04:43.834Z,3.83
2019-03-27T14:07:12.038Z,3.52
2019-03-27T14:09:40.246Z,4.35
2019-03-27T14:12:08.451Z,3.33
2019-03-27T14:14:49.743Z,4.25
2019-03-27T14:17:06.578Z,3.80
2019-03-27T14:19:34.789Z,6.15
2019-03-27T14:22:02.995Z,4.03
2019-03-27T14:24:31.206Z,3.90
2019-03-27T14:26:59.752Z,3.98
2019-03-27T14:29:28.233Z,4.53
2019-03-27T14:31:56.437Z,4.42
2019-03-27T14:34:24.992Z,4.78
2019-03-27T14:36:53.194Z,4.80
2019-03-27T14:39:21.408Z,3.33
2019-03-27T14:41:49.946Z,3.87
2019-03-27T14:44:18.150Z,5.35
2019-03-27T14:46:46.356Z,2.90
2019-03-27T14:49:14.563Z,3.50
2019-03-27T14:51:43.218Z,3.98
2019-03-27T14:54:11.713Z,5.83
2019-03-27T14:56:39.946Z,5.22
2019-03-27T14:59:09.783Z,4.20
2019-03-27T15:01:37.983Z,3.15
2019-03-27T15:04:06.174Z,8.20
2019-03-27T15:06:34.374Z,3.87
2019-03-27T15:09:04.222Z,4.58
2019-03-27T15:11:32.715Z,3.95
2019-03-27T15:14:01.189Z,4.25
2019-03-27T15:16:29.679Z,3.58
2019-03-27T15:18:58.156Z,3.08
2019-03-27T15:21:26.635Z,3.25
2019-03-27T15:23:55.123Z,5.60
2019-03-27T15:26:23.324Z,3.85
2019-03-27T15:28:51.550Z,3.75
2019-03-27T15:31:21.065Z,3.95
2019-03-27T15:33:49.658Z,3.05
2019-03-27T15:36:18.151Z,2.60
2019-03-27T15:38:46.338Z,5.50
2019-03-27T15:41:14.539Z,3.67
2019-03-27T15:43:42.745Z,2.87
2019-03-27T15:46:11.243Z,4.25
2019-03-27T15:48:39.443Z,3.77
2019-03-27T15:51:07.654Z,4.15
2019-03-27T15:53:35.843Z,5.95
2019-03-27T15:56:04.354Z,6.03
2019-03-27T15:58:32.545Z,4.37
2019-03-27T16:01:01.109Z,5.37
2019-03-27T16:03:29.305Z,2.55
2019-03-27T16:05:57.859Z,6.12
2019-03-27T16:08:26.055Z,3.27
2019-03-27T16:10:54.260Z,4.33
2019-03-27T16:13:22.461Z,3.50
2019-03-27T16:15:50.676Z,3.35
2019-03-27T16:18:19.236Z,3.25
2019-03-27T16:20:47.451Z,4.90
2019-03-27T16:23:15.650Z,4.12
2019-03-27T16:25:43.858Z,6.00
2019-03-27T16:28:12.063Z,4.00
2019-03-27T16:30:40.288Z,4.08
2019-03-27T16:33:08.796Z,4.72
2019-03-27T16:35:36.996Z,5.60
2019-03-27T16:38:05.203Z,3.80
2019-03-27T16:40:44.143Z,3.85
2019-03-27T16:43:12.521Z,5.37
2019-03-27T16:45:40.724Z,5.80
2019-03-27T16:48:08.938Z,4.50
2019-03-27T16:50:37.146Z,6.17
2019-03-27T16:53:05.383Z,4.85
2019-03-27T16:55:33.925Z,4.45
2019-03-27T16:58:02.508Z,9.50
2019-03-27T17:00:30.712Z,7.28
2019-03-27T17:02:58.941Z,7.65
2019-03-27T17:05:27.142Z,7.47
2019-03-27T17:07:55.356Z,7.53
2019-03-27T17:10:23.892Z,6.70
2019-03-27T17:12:52.141Z,10.80
2019-03-27T17:15:20.346Z,13.53
2019-03-27T17:17:48.918Z,10.38
2019-03-27T17:20:17.120Z,16.65
2019-03-27T17:22:45.333Z,12.58
2019-03-27T17:25:15.691Z,13.20
2019-03-27T17:27:43.932Z,8.05
2019-03-27T17:30:12.450Z,7.90
2019-03-27T17:32:40.667Z,9.70
2019-03-27T17:35:09.204Z,15.08
2019-03-27T17:37:37.786Z,9.73
2019-03-27T17:40:06.340Z,10.40
2019-03-27T17:42:34.635Z,8.33
2019-03-27T17:45:02.856Z,10.48
2019-03-27T17:47:32.720Z,9.10
2019-03-27T17:50:01.224Z,8.55
2019-03-27T17:52:29.457Z,9.68
2019-03-27T17:54:57.752Z,11.65
2019-03-27T17:57:25.974Z,9.68
2019-03-27T17:59:54.528Z,6.92
2019-03-27T18:02:22.743Z,6.97
2019-03-27T18:04:50.957Z,13.05
2019-03-27T18:07:19.470Z,11.05
2019-03-27T18:09:47.669Z,8.80
2019-03-27T18:12:16.347Z,7.97
2019-03-27T18:14:44.547Z,8.10
2019-03-27T18:17:12.796Z,7.40
2019-03-27T18:19:40.976Z,8.53
2019-03-27T18:22:09.198Z,13.28
2019-03-27T18:24:37.696Z,7.87
2019-03-27T18:27:05.909Z,13.38
2019-03-27T18:29:34.466Z,8.15
2019-03-27T18:32:02.677Z,12.68
2019-03-27T18:34:30.906Z,13.78
2019-03-27T18:36:59.121Z,33.35
2019-03-27T18:39:27.405Z,14.55
2019-03-27T18:41:55.648Z,10.53
2019-03-27T18:44:23.852Z,8.70
2019-03-27T18:46:52.401Z,12.13
2019-03-27T18:49:21.011Z,12.20
2019-03-27T18:51:49.218Z,10.05
2019-03-27T18:54:17.426Z,10.48
2019-03-27T18:56:45.654Z,11.55
2019-03-27T18:59:13.893Z,9.15
2019-03-27T19:01:42.115Z,11.85
2019-03-27T19:04:10.332Z,12.88
2019-03-27T19:06:38.885Z,12.33
2019-03-27T19:09:08.526Z,10.00
2019-03-27T19:11:36.727Z,9.60
2019-03-27T19:14:05.265Z,13.22
2019-03-27T19:16:33.463Z,9.55
2019-03-27T19:19:01.673Z,10.78
2019-03-27T19:21:29.879Z,10.75
2019-03-27T19:23:58.086Z,13.38
2019-03-27T19:26:26.288Z,12.18
2019-03-27T19:28:54.666Z,11.48
2019-03-27T19:31:22.880Z,8.43
2019-03-27T19:33:51.097Z,10.48
2019-03-27T19:36:19.649Z,9.05
2019-03-27T19:38:47.860Z,8.70
2019-03-27T19:41:16.069Z,8.90
2019-03-27T19:43:44.350Z,9.88
2019-03-27T19:46:12.563Z,12.88
2019-03-27T19:48:40.834Z,8.73
2019-03-27T19:51:11.373Z,10.10
2019-03-27T19:53:39.312Z,10.45
2019-03-27T19:56:07.521Z,10.13
2019-03-27T19:58:36.066Z,7.53
2019-03-27T20:01:04.885Z,8.70
2019-03-27T20:03:34.821Z,9.78
2019-03-27T20:06:03.463Z,8.20
2019-03-27T20:08:31.695Z,7.25
2019-03-27T20:10:59.974Z,9.08
2019-03-27T20:13:28.192Z,10.95
2019-03-27T20:15:56.391Z,8.70
2019-03-27T20:18:24.613Z,9.33
2019-03-27T20:20:52.822Z,5.80
2019-03-27T20:23:21.024Z,8.15
2019-03-27T20:25:49.237Z,10.00
2019-03-27T20:28:17.741Z,9.75
2019-03-27T20:30:45.948Z,7.65
2019-03-27T20:33:14.496Z,6.58
2019-03-27T20:35:42.716Z,6.50
2019-03-27T20:38:11.817Z,9.18
2019-03-27T20:40:41.969Z,6.15
2019-03-27T20:43:10.166Z,9.18
2019-03-27T20:45:38.375Z,10.13
2019-03-27T20:48:06.586Z,8.60
2019-03-27T20:50:37.162Z,5.20
2019-03-27T20:53:05.358Z,7.17
2019-03-27T20:55:33.567Z,6.50
2019-03-27T20:58:02.077Z,9.10
2019-03-27T21:00:30.309Z,6.87
2019-03-27T21:02:58.516Z,8.68
2019-03-27T21:05:26.725Z,5.92
2019-03-27T21:07:55.291Z,6.17
2019-03-27T21:10:23.497Z,6.60
2019-03-27T21:12:51.700Z,13.48
2019-03-27T21:15:20.270Z,13.30
2019-03-27T21:17:48.408Z,7.58
2019-03-27T21:20:16.642Z,10.18
2019-03-27T21:22:45.135Z,7.03
2019-03-27T21:25:13.355Z,8.40
2019-03-27T21:27:41.551Z,8.60
2019-03-27T21:30:10.333Z,7.75
2019-03-27T21:32:38.891Z,9.90
2019-03-27T21:35:08.257Z,5.17
2019-03-27T21:37:36.715Z,8.40
2019-03-27T21:40:07.679Z,7.25
2019-03-27T21:42:35.886Z,9.88
2019-03-27T21:45:06.691Z,7.78
2019-03-27T21:47:34.893Z,7.90
2019-03-27T21:50:04.939Z,5.60
2019-03-27T21:52:33.172Z,8.43
2019-03-27T21:55:01.735Z,12.78
2019-03-27T21:57:30.769Z,8.75
2019-03-27T21:59:59.386Z,8.85
2019-03-27T22:02:27.888Z,5.53
2019-03-27T22:04:56.123Z,6.33
2019-03-27T22:07:24.588Z,8.20
2019-03-27T22:09:52.802Z,6.58
2019-03-27T22:12:21.304Z,5.90
2019-03-27T22:14:49.528Z,7.22
2019-03-27T22:17:17.730Z,5.70
2019-03-27T22:19:45.945Z,4.90
2019-03-27T22:22:14.150Z,7.15
2019-03-27T22:24:42.703Z,4.62
2019-03-27T22:27:10.944Z,7.47
2019-03-27T22:29:39.497Z,4.85
2019-03-27T22:32:07.695Z,5.17
2019-03-27T22:34:37.557Z,6.95
2019-03-27T22:37:05.756Z,5.95
2019-03-27T22:39:33.980Z,6.83
2019-03-27T22:42:02.311Z,14.73
2019-03-27T22:44:30.837Z,12.98
2019-03-27T22:46:59.046Z,10.15
2019-03-27T22:49:27.269Z,12.28
2019-03-27T22:51:55.541Z,8.80
2019-03-27T22:54:23.757Z,10.90
2019-03-27T22:56:52.041Z,9.45
2019-03-27T22:59:20.264Z,10.53
2019-03-27T23:01:48.464Z,9.25
2019-03-27T23:04:16.760Z,10.15
2019-03-27T23:06:44.956Z,8.05
2019-03-27T23:09:13.174Z,9.38
2019-03-27T23:11:41.672Z,10.00
2019-03-27T23:14:09.882Z,11.05
2019-03-27T23:16:38.108Z,38.05
2019-03-27T23:19:06.601Z,24.37
2019-03-27T23:21:34.810Z,17.52
2019-03-27T23:24:03.022Z,17.45
2019-03-27T23:26:31.234Z,14.73
2019-03-27T23:28:59.446Z,15.28
2019-03-27T23:31:27.976Z,16.90
2019-03-27T23:33:56.198Z,14.98
2019-03-27T23:36:24.734Z,16.75
2019-03-27T23:38:53.220Z,15.83
2019-03-27T23:41:21.803Z,13.55
2019-03-27T23:43:50.020Z,12.90
2019-03-27T23:46:18.558Z,12.88
2019-03-27T23:48:46.768Z,12.37
2019-03-27T23:51:14.989Z,13.98
2019-03-27T23:53:43.191Z,12.55
2019-03-27T23:56:16.838Z,12.20
2019-03-27T23:58:41.697Z,12.68
